sensor_id;sensor_type;location;lat;lon;timestamp;P1;durP1;ratioP1;P2;durP2;ratioP2
15043;SDS011;7619;48.562;8.910;2023-12-29T00:01:04;2.47;;;1.87;;
15043;SDS011;7619;48.562;8.910;2023-12-29T00:03:32;2.60;;;1.60;;
15043;SDS011;7619;48.562;8.910;2023-12-29T00:06:02;2.73;;;2.03;;
15043;SDS011;7619;48.562;8.910;2023-12-29T00:08:30;2.17;;;1.97;;
15043;SDS011;7619;48.562;8.910;2023-12-29T00:10:58;3.33;;;2.27;;
15043;SDS011;7619;48.562;8.910;2023-12-29T00:13:27;2.20;;;1.80;;
15043;SDS011;7619;48.562;8.910;2023-12-29T00:15:55;2.10;;;1.67;;
15043;SDS011;7619;48.562;8.910;2023-12-29T00:18:24;2.50;;;2.20;;
15043;SDS011;7619;48.562;8.910;2023-12-29T00:20:52;1.77;;;1.67;;
15043;SDS011;7619;48.562;8.910;2023-12-29T00:23:20;2.70;;;1.57;;
15043;SDS011;7619;48.562;8.910;2023-12-29T00:25:49;2.97;;;2.20;;
15043;SDS011;7619;48.562;8.910;2023-12-29T00:28:17;2.37;;;1.70;;
15043;SDS011;7619;48.562;8.910;2023-12-29T00:30:45;2.20;;;1.70;;
15043;SDS011;7619;48.562;8.910;2023-12-29T00:33:13;1.93;;;1.63;;
15043;SDS011;7619;48.562;8.910;2023-12-29T00:35:41;2.97;;;1.60;;
15043;SDS011;7619;48.562;8.910;2023-12-29T00:38:09;2.57;;;1.73;;
15043;SDS011;7619;48.562;8.910;2023-12-29T00:40:37;2.67;;;1.97;;
15043;SDS011;7619;48.562;8.910;2023-12-29T00:43:06;1.60;;;1.50;;
15043;SDS011;7619;48.562;8.910;2023-12-29T00:45:34;4.33;;;1.87;;
15043;SDS011;7619;48.562;8.910;2023-12-29T00:48:03;3.10;;;1.80;;
15043;SDS011;7619;48.562;8.910;2023-12-29T00:50:31;2.93;;;1.87;;
15043;SDS011;7619;48.562;8.910;2023-12-29T00:52:59;2.43;;;2.10;;
15043;SDS011;7619;48.562;8.910;2023-12-29T00:55:28;3.27;;;2.00;;
15043;SDS011;7619;48.562;8.910;2023-12-29T00:57:56;2.13;;;1.83;;
15043;SDS011;7619;48.562;8.910;2023-12-29T01:00:25;2.30;;;1.70;;
15043;SDS011;7619;48.562;8.910;2023-12-29T01:02:53;2.20;;;2.00;;
15043;SDS011;7619;48.562;8.910;2023-12-29T01:05:21;2.90;;;1.90;;
15043;SDS011;7619;48.562;8.910;2023-12-29T01:07:49;2.13;;;1.77;;
15043;SDS011;7619;48.562;8.910;2023-12-29T01:10:17;2.00;;;1.80;;
15043;SDS011;7619;48.562;8.910;2023-12-29T01:12:45;1.70;;;1.60;;
15043;SDS011;7619;48.562;8.910;2023-12-29T01:15:14;2.37;;;2.10;;
15043;SDS011;7619;48.562;8.910;2023-12-29T01:17:42;2.87;;;2.27;;
15043;SDS011;7619;48.562;8.910;2023-12-29T01:20:10;2.13;;;1.93;;
15043;SDS011;7619;48.562;8.910;2023-12-29T01:22:39;2.77;;;2.20;;
15043;SDS011;7619;48.562;8.910;2023-12-29T01:25:07;6.63;;;2.40;;
15043;SDS011;7619;48.562;8.910;2023-12-29T01:27:35;5.07;;;2.70;;
15043;SDS011;7619;48.562;8.910;2023-12-29T01:30:05;4.20;;;2.83;;
15043;SDS011;7619;48.562;8.910;2023-12-29T01:32:33;4.50;;;3.13;;
15043;SDS011;7619;48.562;8.910;2023-12-29T01:35:01;5.57;;;3.47;;
15043;SDS011;7619;48.562;8.910;2023-12-29T01:37:29;4.57;;;3.23;;
15043;SDS011;7619;48.562;8.910;2023-12-29T01:39:57;4.83;;;3.30;;
15043;SDS011;7619;48.562;8.910;2023-12-29T01:42:26;4.90;;;3.03;;
15043;SDS011;7619;48.562;8.910;2023-12-29T01:44:54;3.43;;;2.93;;
15043;SDS011;7619;48.562;8.910;2023-12-29T01:47:22;6.00;;;3.13;;
15043;SDS011;7619;48.562;8.910;2023-12-29T01:49:50;5.77;;;2.70;;
15043;SDS011;7619;48.562;8.910;2023-12-29T01:52:18;3.60;;;2.43;;
15043;SDS011;7619;48.562;8.910;2023-12-29T01:54:48;3.97;;;2.90;;
15043;SDS011;7619;48.562;8.910;2023-12-29T01:57:17;4.53;;;2.37;;
15043;SDS011;7619;48.562;8.910;2023-12-29T01:59:45;3.03;;;2.70;;
15043;SDS011;7619;48.562;8.910;2023-12-29T02:02:15;6.63;;;2.73;;
15043;SDS011;7619;48.562;8.910;2023-12-29T02:04:43;3.07;;;2.27;;
15043;SDS011;7619;48.562;8.910;2023-12-29T02:07:12;3.47;;;2.53;;
15043;SDS011;7619;48.562;8.910;2023-12-29T02:09:40;3.57;;;2.30;;
15043;SDS011;7619;48.562;8.910;2023-12-29T02:12:08;2.90;;;2.43;;
15043;SDS011;7619;48.562;8.910;2023-12-29T02:14:36;3.87;;;2.63;;
15043;SDS011;7619;48.562;8.910;2023-12-29T02:17:07;1.77;;;1.63;;
15043;SDS011;7619;48.562;8.910;2023-12-29T02:19:39;4.83;;;2.43;;
15043;SDS011;7619;48.562;8.910;2023-12-29T02:22:08;3.33;;;2.63;;
15043;SDS011;7619;48.562;8.910;2023-12-29T02:24:37;3.07;;;2.33;;
15043;SDS011;7619;48.562;8.910;2023-12-29T02:27:13;4.73;;;2.50;;
15043;SDS011;7619;48.562;8.910;2023-12-29T02:29:43;4.37;;;2.43;;
15043;SDS011;7619;48.562;8.910;2023-12-29T02:32:11;4.87;;;2.50;;
15043;SDS011;7619;48.562;8.910;2023-12-29T02:34:41;2.43;;;2.23;;
15043;SDS011;7619;48.562;8.910;2023-12-29T02:37:10;3.37;;;2.53;;
15043;SDS011;7619;48.562;8.910;2023-12-29T02:39:40;3.60;;;2.53;;
15043;SDS011;7619;48.562;8.910;2023-12-29T02:42:08;3.17;;;2.87;;
15043;SDS011;7619;48.562;8.910;2023-12-29T02:44:36;4.23;;;2.47;;
15043;SDS011;7619;48.562;8.910;2023-12-29T02:47:04;3.30;;;2.50;;
15043;SDS011;7619;48.562;8.910;2023-12-29T02:49:32;3.30;;;2.90;;
15043;SDS011;7619;48.562;8.910;2023-12-29T02:52:00;3.13;;;2.37;;
15043;SDS011;7619;48.562;8.910;2023-12-29T02:54:28;3.30;;;2.50;;
15043;SDS011;7619;48.562;8.910;2023-12-29T02:56:57;3.23;;;2.80;;
15043;SDS011;7619;48.562;8.910;2023-12-29T02:59:25;4.17;;;2.90;;
15043;SDS011;7619;48.562;8.910;2023-12-29T03:01:53;3.50;;;2.47;;
15043;SDS011;7619;48.562;8.910;2023-12-29T03:04:21;2.87;;;2.03;;
15043;SDS011;7619;48.562;8.910;2023-12-29T03:06:49;4.07;;;2.03;;
15043;SDS011;7619;48.562;8.910;2023-12-29T03:09:17;4.87;;;2.50;;
15043;SDS011;7619;48.562;8.910;2023-12-29T03:11:46;3.73;;;2.23;;
15043;SDS011;7619;48.562;8.910;2023-12-29T03:14:15;4.70;;;2.33;;
15043;SDS011;7619;48.562;8.910;2023-12-29T03:16:43;4.37;;;2.20;;
15043;SDS011;7619;48.562;8.910;2023-12-29T03:19:11;5.60;;;2.87;;
15043;SDS011;7619;48.562;8.910;2023-12-29T03:21:39;3.27;;;2.60;;
15043;SDS011;7619;48.562;8.910;2023-12-29T03:24:07;3.47;;;2.10;;
15043;SDS011;7619;48.562;8.910;2023-12-29T03:26:35;3.20;;;2.73;;
15043;SDS011;7619;48.562;8.910;2023-12-29T03:29:03;4.50;;;2.47;;
15043;SDS011;7619;48.562;8.910;2023-12-29T03:31:31;4.60;;;2.50;;
15043;SDS011;7619;48.562;8.910;2023-12-29T03:33:59;3.33;;;2.10;;
15043;SDS011;7619;48.562;8.910;2023-12-29T03:36:27;3.20;;;2.73;;
15043;SDS011;7619;48.562;8.910;2023-12-29T03:38:55;3.47;;;2.90;;
15043;SDS011;7619;48.562;8.910;2023-12-29T03:41:23;2.03;;;1.83;;
15043;SDS011;7619;48.562;8.910;2023-12-29T03:43:51;3.80;;;2.27;;
15043;SDS011;7619;48.562;8.910;2023-12-29T03:46:20;2.00;;;1.80;;
15043;SDS011;7619;48.562;8.910;2023-12-29T03:48:48;2.57;;;2.37;;
15043;SDS011;7619;48.562;8.910;2023-12-29T03:51:17;4.43;;;2.40;;
15043;SDS011;7619;48.562;8.910;2023-12-29T03:53:46;2.60;;;2.40;;
15043;SDS011;7619;48.562;8.910;2023-12-29T03:56:14;3.73;;;2.43;;
15043;SDS011;7619;48.562;8.910;2023-12-29T03:58:43;2.00;;;1.90;;
15043;SDS011;7619;48.562;8.910;2023-12-29T04:01:11;2.67;;;2.27;;
15043;SDS011;7619;48.562;8.910;2023-12-29T04:03:39;2.83;;;2.30;;
15043;SDS011;7619;48.562;8.910;2023-12-29T04:06:07;2.20;;;1.97;;
15043;SDS011;7619;48.562;8.910;2023-12-29T04:08:36;2.10;;;1.90;;
15043;SDS011;7619;48.562;8.910;2023-12-29T04:11:04;2.43;;;1.90;;
15043;SDS011;7619;48.562;8.910;2023-12-29T04:13:33;2.17;;;1.97;;
15043;SDS011;7619;48.562;8.910;2023-12-29T04:16:01;2.27;;;2.00;;
15043;SDS011;7619;48.562;8.910;2023-12-29T04:18:29;2.20;;;2.00;;
15043;SDS011;7619;48.562;8.910;2023-12-29T04:20:58;3.27;;;2.07;;
15043;SDS011;7619;48.562;8.910;2023-12-29T04:23:26;2.23;;;2.03;;
15043;SDS011;7619;48.562;8.910;2023-12-29T04:25:54;2.17;;;1.53;;
15043;SDS011;7619;48.562;8.910;2023-12-29T04:28:22;1.90;;;1.80;;
15043;SDS011;7619;48.562;8.910;2023-12-29T04:30:50;3.03;;;2.50;;
15043;SDS011;7619;48.562;8.910;2023-12-29T04:33:18;2.10;;;1.90;;
15043;SDS011;7619;48.562;8.910;2023-12-29T04:35:46;2.83;;;2.00;;
15043;SDS011;7619;48.562;8.910;2023-12-29T04:38:14;2.67;;;1.80;;
15043;SDS011;7619;48.562;8.910;2023-12-29T04:40:45;2.10;;;1.77;;
15043;SDS011;7619;48.562;8.910;2023-12-29T04:43:13;2.17;;;1.97;;
15043;SDS011;7619;48.562;8.910;2023-12-29T04:45:42;1.97;;;1.80;;
15043;SDS011;7619;48.562;8.910;2023-12-29T04:48:10;2.10;;;1.90;;
15043;SDS011;7619;48.562;8.910;2023-12-29T04:50:39;6.03;;;2.50;;
15043;SDS011;7619;48.562;8.910;2023-12-29T04:53:07;4.30;;;1.77;;
15043;SDS011;7619;48.562;8.910;2023-12-29T04:55:35;3.17;;;2.07;;
15043;SDS011;7619;48.562;8.910;2023-12-29T04:58:03;3.43;;;2.30;;
15043;SDS011;7619;48.562;8.910;2023-12-29T05:00:31;2.57;;;2.37;;
15043;SDS011;7619;48.562;8.910;2023-12-29T05:03:00;2.07;;;1.70;;
15043;SDS011;7619;48.562;8.910;2023-12-29T05:05:28;1.83;;;1.73;;
15043;SDS011;7619;48.562;8.910;2023-12-29T05:07:56;2.57;;;2.10;;
15043;SDS011;7619;48.562;8.910;2023-12-29T05:10:24;2.50;;;2.03;;
15043;SDS011;7619;48.562;8.910;2023-12-29T05:12:52;3.10;;;1.70;;
15043;SDS011;7619;48.562;8.910;2023-12-29T05:15:20;2.80;;;2.13;;
15043;SDS011;7619;48.562;8.910;2023-12-29T05:17:48;2.73;;;2.00;;
15043;SDS011;7619;48.562;8.910;2023-12-29T05:20:16;3.13;;;2.20;;
15043;SDS011;7619;48.562;8.910;2023-12-29T05:22:44;6.50;;;2.20;;
15043;SDS011;7619;48.562;8.910;2023-12-29T05:25:13;2.07;;;1.77;;
15043;SDS011;7619;48.562;8.910;2023-12-29T05:27:41;2.10;;;1.90;;
15043;SDS011;7619;48.562;8.910;2023-12-29T05:30:10;2.73;;;2.20;;
15043;SDS011;7619;48.562;8.910;2023-12-29T05:32:39;2.37;;;1.93;;
15043;SDS011;7619;48.562;8.910;2023-12-29T05:35:07;2.43;;;2.23;;
15043;SDS011;7619;48.562;8.910;2023-12-29T05:37:35;2.47;;;1.93;;
15043;SDS011;7619;48.562;8.910;2023-12-29T05:40:04;2.30;;;2.10;;
15043;SDS011;7619;48.562;8.910;2023-12-29T05:42:32;2.83;;;2.10;;
15043;SDS011;7619;48.562;8.910;2023-12-29T05:45:00;2.47;;;1.93;;
15043;SDS011;7619;48.562;8.910;2023-12-29T05:47:29;4.20;;;1.80;;
15043;SDS011;7619;48.562;8.910;2023-12-29T05:49:57;3.57;;;2.50;;
15043;SDS011;7619;48.562;8.910;2023-12-29T05:52:25;2.23;;;1.90;;
15043;SDS011;7619;48.562;8.910;2023-12-29T05:54:53;3.67;;;2.00;;
15043;SDS011;7619;48.562;8.910;2023-12-29T05:57:21;2.37;;;2.10;;
15043;SDS011;7619;48.562;8.910;2023-12-29T05:59:49;4.27;;;2.37;;
15043;SDS011;7619;48.562;8.910;2023-12-29T06:02:17;2.00;;;1.80;;
15043;SDS011;7619;48.562;8.910;2023-12-29T06:04:46;2.07;;;1.90;;
15043;SDS011;7619;48.562;8.910;2023-12-29T06:07:14;2.37;;;1.97;;
15043;SDS011;7619;48.562;8.910;2023-12-29T06:09:42;2.07;;;1.87;;
15043;SDS011;7619;48.562;8.910;2023-12-29T06:12:10;2.27;;;2.00;;
15043;SDS011;7619;48.562;8.910;2023-12-29T06:14:38;2.10;;;1.77;;
15043;SDS011;7619;48.562;8.910;2023-12-29T06:17:06;2.27;;;1.70;;
15043;SDS011;7619;48.562;8.910;2023-12-29T06:19:34;1.97;;;1.77;;
15043;SDS011;7619;48.562;8.910;2023-12-29T06:22:02;3.57;;;2.10;;
15043;SDS011;7619;48.562;8.910;2023-12-29T06:24:30;3.57;;;1.97;;
15043;SDS011;7619;48.562;8.910;2023-12-29T06:27:00;1.83;;;1.63;;
15043;SDS011;7619;48.562;8.910;2023-12-29T06:29:28;2.33;;;1.90;;
15043;SDS011;7619;48.562;8.910;2023-12-29T06:31:57;1.87;;;1.77;;
15043;SDS011;7619;48.562;8.910;2023-12-29T06:34:26;3.20;;;1.87;;
15043;SDS011;7619;48.562;8.910;2023-12-29T06:36:54;2.23;;;1.80;;
15043;SDS011;7619;48.562;8.910;2023-12-29T06:39:22;4.93;;;2.20;;
15043;SDS011;7619;48.562;8.910;2023-12-29T06:41:50;2.17;;;1.90;;
15043;SDS011;7619;48.562;8.910;2023-12-29T06:44:18;2.03;;;1.70;;
15043;SDS011;7619;48.562;8.910;2023-12-29T06:46:46;2.93;;;2.07;;
15043;SDS011;7619;48.562;8.910;2023-12-29T06:49:14;1.80;;;1.70;;
15043;SDS011;7619;48.562;8.910;2023-12-29T06:51:43;3.17;;;2.03;;
15043;SDS011;7619;48.562;8.910;2023-12-29T06:54:11;2.73;;;1.90;;
15043;SDS011;7619;48.562;8.910;2023-12-29T06:56:39;2.07;;;1.80;;
15043;SDS011;7619;48.562;8.910;2023-12-29T06:59:07;2.47;;;2.17;;
15043;SDS011;7619;48.562;8.910;2023-12-29T07:01:38;2.60;;;2.10;;
15043;SDS011;7619;48.562;8.910;2023-12-29T07:04:07;3.73;;;2.20;;
15043;SDS011;7619;48.562;8.910;2023-12-29T07:06:37;2.93;;;2.53;;
15043;SDS011;7619;48.562;8.910;2023-12-29T07:09:05;2.17;;;1.90;;
15043;SDS011;7619;48.562;8.910;2023-12-29T07:11:34;3.40;;;2.10;;
15043;SDS011;7619;48.562;8.910;2023-12-29T07:14:02;1.73;;;1.63;;
15043;SDS011;7619;48.562;8.910;2023-12-29T07:16:30;2.13;;;1.43;;
15043;SDS011;7619;48.562;8.910;2023-12-29T07:18:59;2.47;;;2.00;;
15043;SDS011;7619;48.562;8.910;2023-12-29T07:21:27;2.63;;;1.90;;
15043;SDS011;7619;48.562;8.910;2023-12-29T07:23:55;2.37;;;1.90;;
15043;SDS011;7619;48.562;8.910;2023-12-29T07:26:23;3.07;;;1.97;;
15043;SDS011;7619;48.562;8.910;2023-12-29T07:28:51;2.93;;;2.07;;
15043;SDS011;7619;48.562;8.910;2023-12-29T07:31:21;2.43;;;2.23;;
15043;SDS011;7619;48.562;8.910;2023-12-29T07:33:49;2.60;;;2.00;;
15043;SDS011;7619;48.562;8.910;2023-12-29T07:36:17;3.17;;;2.87;;
15043;SDS011;7619;48.562;8.910;2023-12-29T07:38:45;2.80;;;2.47;;
15043;SDS011;7619;48.562;8.910;2023-12-29T07:41:13;3.47;;;2.67;;
15043;SDS011;7619;48.562;8.910;2023-12-29T07:43:41;2.47;;;2.13;;
15043;SDS011;7619;48.562;8.910;2023-12-29T07:46:09;2.40;;;2.13;;
15043;SDS011;7619;48.562;8.910;2023-12-29T07:48:37;3.90;;;2.30;;
15043;SDS011;7619;48.562;8.910;2023-12-29T07:51:06;2.20;;;2.00;;
15043;SDS011;7619;48.562;8.910;2023-12-29T07:53:35;2.73;;;2.27;;
15043;SDS011;7619;48.562;8.910;2023-12-29T07:56:03;2.63;;;1.90;;
15043;SDS011;7619;48.562;8.910;2023-12-29T07:58:31;2.67;;;2.10;;
15043;SDS011;7619;48.562;8.910;2023-12-29T08:00:59;2.43;;;2.23;;
15043;SDS011;7619;48.562;8.910;2023-12-29T08:03:27;4.50;;;2.17;;
15043;SDS011;7619;48.562;8.910;2023-12-29T08:05:56;1.73;;;1.63;;
15043;SDS011;7619;48.562;8.910;2023-12-29T08:08:24;2.33;;;2.00;;
15043;SDS011;7619;48.562;8.910;2023-12-29T08:10:52;2.50;;;1.90;;
15043;SDS011;7619;48.562;8.910;2023-12-29T08:13:20;3.93;;;2.17;;
15043;SDS011;7619;48.562;8.910;2023-12-29T08:15:48;2.03;;;1.83;;
15043;SDS011;7619;48.562;8.910;2023-12-29T08:18:16;1.60;;;1.30;;
15043;SDS011;7619;48.562;8.910;2023-12-29T08:20:44;3.73;;;2.00;;
15043;SDS011;7619;48.562;8.910;2023-12-29T08:23:12;2.17;;;1.30;;
15043;SDS011;7619;48.562;8.910;2023-12-29T08:25:40;1.40;;;1.30;;
15043;SDS011;7619;48.562;8.910;2023-12-29T08:28:08;2.37;;;1.47;;
15043;SDS011;7619;48.562;8.910;2023-12-29T08:30:36;1.60;;;1.50;;
15043;SDS011;7619;48.562;8.910;2023-12-29T08:33:05;1.97;;;1.40;;
15043;SDS011;7619;48.562;8.910;2023-12-29T08:35:33;2.43;;;1.60;;
15043;SDS011;7619;48.562;8.910;2023-12-29T08:38:01;3.97;;;1.60;;
15043;SDS011;7619;48.562;8.910;2023-12-29T08:40:29;1.63;;;1.50;;
15043;SDS011;7619;48.562;8.910;2023-12-29T08:42:57;2.40;;;1.80;;
15043;SDS011;7619;48.562;8.910;2023-12-29T08:45:25;2.67;;;1.93;;
15043;SDS011;7619;48.562;8.910;2023-12-29T08:47:53;1.57;;;1.47;;
15043;SDS011;7619;48.562;8.910;2023-12-29T08:50:21;2.23;;;1.53;;
15043;SDS011;7619;48.562;8.910;2023-12-29T08:52:49;1.73;;;1.50;;
15043;SDS011;7619;48.562;8.910;2023-12-29T08:55:17;2.60;;;1.37;;
15043;SDS011;7619;48.562;8.910;2023-12-29T08:57:45;2.93;;;1.70;;
15043;SDS011;7619;48.562;8.910;2023-12-29T09:00:14;1.73;;;1.63;;
15043;SDS011;7619;48.562;8.910;2023-12-29T09:02:42;6.17;;;2.43;;
15043;SDS011;7619;48.562;8.910;2023-12-29T09:05:11;2.70;;;2.50;;
15043;SDS011;7619;48.562;8.910;2023-12-29T09:07:39;6.07;;;3.40;;
15043;SDS011;7619;48.562;8.910;2023-12-29T09:10:07;6.20;;;3.30;;
15043;SDS011;7619;48.562;8.910;2023-12-29T09:12:37;4.47;;;3.10;;
15043;SDS011;7619;48.562;8.910;2023-12-29T09:15:06;2.50;;;2.30;;
15043;SDS011;7619;48.562;8.910;2023-12-29T09:17:34;2.93;;;2.17;;
15043;SDS011;7619;48.562;8.910;2023-12-29T09:20:02;4.97;;;2.07;;
15043;SDS011;7619;48.562;8.910;2023-12-29T09:22:30;1.93;;;1.83;;
15043;SDS011;7619;48.562;8.910;2023-12-29T09:24:59;3.87;;;2.90;;
15043;SDS011;7619;48.562;8.910;2023-12-29T09:27:27;3.20;;;2.03;;
15043;SDS011;7619;48.562;8.910;2023-12-29T09:29:55;7.33;;;2.10;;
15043;SDS011;7619;48.562;8.910;2023-12-29T09:32:23;7.03;;;2.10;;
15043;SDS011;7619;48.562;8.910;2023-12-29T09:34:51;1.90;;;1.80;;
15043;SDS011;7619;48.562;8.910;2023-12-29T09:37:19;3.80;;;2.10;;
15043;SDS011;7619;48.562;8.910;2023-12-29T09:39:47;5.90;;;2.50;;
15043;SDS011;7619;48.562;8.910;2023-12-29T09:42:18;3.13;;;2.53;;
15043;SDS011;7619;48.562;8.910;2023-12-29T09:44:46;4.30;;;2.33;;
15043;SDS011;7619;48.562;8.910;2023-12-29T09:47:14;2.97;;;2.40;;
15043;SDS011;7619;48.562;8.910;2023-12-29T09:49:44;5.67;;;2.67;;
15043;SDS011;7619;48.562;8.910;2023-12-29T09:52:12;3.40;;;2.70;;
15043;SDS011;7619;48.562;8.910;2023-12-29T09:54:41;4.30;;;3.00;;
15043;SDS011;7619;48.562;8.910;2023-12-29T09:57:09;2.83;;;2.60;;
15043;SDS011;7619;48.562;8.910;2023-12-29T09:59:38;3.47;;;2.30;;
15043;SDS011;7619;48.562;8.910;2023-12-29T10:02:07;1.50;;;1.40;;
15043;SDS011;7619;48.562;8.910;2023-12-29T10:04:37;1.87;;;1.77;;
15043;SDS011;7619;48.562;8.910;2023-12-29T10:07:05;1.77;;;1.60;;
15043;SDS011;7619;48.562;8.910;2023-12-29T10:09:34;2.13;;;1.63;;
15043;SDS011;7619;48.562;8.910;2023-12-29T10:12:04;2.00;;;1.80;;
15043;SDS011;7619;48.562;8.910;2023-12-29T10:14:35;2.33;;;1.70;;
15043;SDS011;7619;48.562;8.910;2023-12-29T10:17:08;1.60;;;1.40;;
15043;SDS011;7619;48.562;8.910;2023-12-29T10:19:34;2.43;;;1.10;;
15043;SDS011;7619;48.562;8.910;2023-12-29T10:22:05;2.00;;;1.30;;
15043;SDS011;7619;48.562;8.910;2023-12-29T10:24:33;1.57;;;1.47;;
15043;SDS011;7619;48.562;8.910;2023-12-29T10:27:02;2.07;;;1.83;;
15043;SDS011;7619;48.562;8.910;2023-12-29T10:29:30;1.60;;;1.50;;
15043;SDS011;7619;48.562;8.910;2023-12-29T10:31:59;1.53;;;1.27;;
15043;SDS011;7619;48.562;8.910;2023-12-29T10:34:27;1.40;;;1.27;;
15043;SDS011;7619;48.562;8.910;2023-12-29T10:36:56;1.77;;;1.40;;
15043;SDS011;7619;48.562;8.910;2023-12-29T10:39:24;1.53;;;1.43;;
15043;SDS011;7619;48.562;8.910;2023-12-29T10:41:54;2.97;;;1.47;;
15043;SDS011;7619;48.562;8.910;2023-12-29T10:44:23;1.57;;;1.37;;
15043;SDS011;7619;48.562;8.910;2023-12-29T10:46:51;2.87;;;1.40;;
15043;SDS011;7619;48.562;8.910;2023-12-29T10:49:19;2.23;;;1.20;;
15043;SDS011;7619;48.562;8.910;2023-12-29T10:51:47;3.20;;;1.30;;
15043;SDS011;7619;48.562;8.910;2023-12-29T10:54:19;1.67;;;1.47;;
15043;SDS011;7619;48.562;8.910;2023-12-29T10:56:47;1.20;;;1.07;;
15043;SDS011;7619;48.562;8.910;2023-12-29T10:59:15;1.07;;;0.90;;
15043;SDS011;7619;48.562;8.910;2023-12-29T11:01:43;1.33;;;1.23;;
15043;SDS011;7619;48.562;8.910;2023-12-29T11:04:11;1.10;;;0.93;;
15043;SDS011;7619;48.562;8.910;2023-12-29T11:06:40;1.40;;;1.20;;
15043;SDS011;7619;48.562;8.910;2023-12-29T11:09:11;1.10;;;1.00;;
15043;SDS011;7619;48.562;8.910;2023-12-29T11:11:39;0.80;;;0.80;;
15043;SDS011;7619;48.562;8.910;2023-12-29T11:14:07;1.37;;;1.00;;
15043;SDS011;7619;48.562;8.910;2023-12-29T11:16:37;2.03;;;0.70;;
15043;SDS011;7619;48.562;8.910;2023-12-29T11:19:05;0.80;;;0.80;;
15043;SDS011;7619;48.562;8.910;2023-12-29T11:21:36;1.10;;;1.00;;
15043;SDS011;7619;48.562;8.910;2023-12-29T11:24:05;1.57;;;1.00;;
15043;SDS011;7619;48.562;8.910;2023-12-29T11:26:33;1.17;;;0.97;;
15043;SDS011;7619;48.562;8.910;2023-12-29T11:29:02;0.80;;;0.77;;
15043;SDS011;7619;48.562;8.910;2023-12-29T11:31:31;1.67;;;1.00;;
15043;SDS011;7619;48.562;8.910;2023-12-29T11:34:00;1.20;;;1.10;;
15043;SDS011;7619;48.562;8.910;2023-12-29T11:36:29;1.20;;;1.10;;
15043;SDS011;7619;48.562;8.910;2023-12-29T11:38:59;0.70;;;0.70;;
15043;SDS011;7619;48.562;8.910;2023-12-29T11:41:30;1.70;;;1.00;;
15043;SDS011;7619;48.562;8.910;2023-12-29T11:43:58;1.97;;;1.37;;
15043;SDS011;7619;48.562;8.910;2023-12-29T11:46:32;0.90;;;0.90;;
15043;SDS011;7619;48.562;8.910;2023-12-29T11:49:01;0.90;;;0.90;;
15043;SDS011;7619;48.562;8.910;2023-12-29T11:51:31;1.43;;;0.80;;
15043;SDS011;7619;48.562;8.910;2023-12-29T11:54:00;0.90;;;0.67;;
15043;SDS011;7619;48.562;8.910;2023-12-29T11:56:33;1.87;;;0.97;;
15043;SDS011;7619;48.562;8.910;2023-12-29T11:59:12;1.10;;;0.80;;
15043;SDS011;7619;48.562;8.910;2023-12-29T12:01:40;0.93;;;0.80;;
15043;SDS011;7619;48.562;8.910;2023-12-29T12:06:54;1.17;;;1.00;;
15043;SDS011;7619;48.562;8.910;2023-12-29T12:09:22;1.20;;;1.10;;
15043;SDS011;7619;48.562;8.910;2023-12-29T12:11:51;2.43;;;1.10;;
15043;SDS011;7619;48.562;8.910;2023-12-29T12:14:43;1.60;;;1.50;;
15043;SDS011;7619;48.562;8.910;2023-12-29T12:17:11;1.30;;;1.10;;
15043;SDS011;7619;48.562;8.910;2023-12-29T12:19:39;1.93;;;1.23;;
15043;SDS011;7619;48.562;8.910;2023-12-29T12:22:07;0.83;;;0.83;;
15043;SDS011;7619;48.562;8.910;2023-12-29T12:24:36;1.20;;;1.10;;
15043;SDS011;7619;48.562;8.910;2023-12-29T12:27:09;1.10;;;0.97;;
15043;SDS011;7619;48.562;8.910;2023-12-29T12:29:38;2.60;;;1.10;;
15043;SDS011;7619;48.562;8.910;2023-12-29T12:32:06;1.40;;;1.03;;
15043;SDS011;7619;48.562;8.910;2023-12-29T12:34:37;0.80;;;0.80;;
15043;SDS011;7619;48.562;8.910;2023-12-29T12:37:06;0.83;;;0.83;;
15043;SDS011;7619;48.562;8.910;2023-12-29T12:39:40;1.07;;;1.00;;
15043;SDS011;7619;48.562;8.910;2023-12-29T12:42:08;0.90;;;0.90;;
15043;SDS011;7619;48.562;8.910;2023-12-29T12:44:38;1.20;;;1.10;;
15043;SDS011;7619;48.562;8.910;2023-12-29T12:47:07;0.70;;;0.70;;
15043;SDS011;7619;48.562;8.910;2023-12-29T12:49:36;0.80;;;0.80;;
15043;SDS011;7619;48.562;8.910;2023-12-29T12:52:04;2.40;;;1.30;;
15043;SDS011;7619;48.562;8.910;2023-12-29T13:00:06;0.70;;;0.70;;
15043;SDS011;7619;48.562;8.910;2023-12-29T13:02:44;1.03;;;0.93;;
15043;SDS011;7619;48.562;8.910;2023-12-29T13:05:13;2.00;;;0.87;;
15043;SDS011;7619;48.562;8.910;2023-12-29T13:07:46;1.10;;;0.70;;
15043;SDS011;7619;48.562;8.910;2023-12-29T13:10:24;0.90;;;0.90;;
15043;SDS011;7619;48.562;8.910;2023-12-29T13:13:14;0.73;;;0.70;;
15043;SDS011;7619;48.562;8.910;2023-12-29T13:16:06;1.00;;;0.70;;
15043;SDS011;7619;48.562;8.910;2023-12-29T13:21:42;1.13;;;0.90;;
15043;SDS011;7619;48.562;8.910;2023-12-29T13:27:39;1.30;;;0.83;;
15043;SDS011;7619;48.562;8.910;2023-12-29T13:48:27;1.93;;;1.20;;
15043;SDS011;7619;48.562;8.910;2023-12-29T13:51:22;2.67;;;1.10;;
15043;SDS011;7619;48.562;8.910;2023-12-29T13:54:03;3.43;;;1.10;;
15043;SDS011;7619;48.562;8.910;2023-12-29T13:59:50;0.90;;;0.90;;
15043;SDS011;7619;48.562;8.910;2023-12-29T14:02:26;1.53;;;0.90;;
15043;SDS011;7619;48.562;8.910;2023-12-29T14:05:11;0.70;;;0.70;;
15043;SDS011;7619;48.562;8.910;2023-12-29T14:07:44;1.17;;;1.07;;
15043;SDS011;7619;48.562;8.910;2023-12-29T14:10:16;1.00;;;0.90;;
15043;SDS011;7619;48.562;8.910;2023-12-29T14:12:47;0.87;;;0.87;;
15043;SDS011;7619;48.562;8.910;2023-12-29T14:15:21;3.33;;;1.77;;
15043;SDS011;7619;48.562;8.910;2023-12-29T14:17:50;0.87;;;0.87;;
15043;SDS011;7619;48.562;8.910;2023-12-29T14:20:33;1.20;;;1.07;;
15043;SDS011;7619;48.562;8.910;2023-12-29T14:23:02;1.37;;;1.13;;
15043;SDS011;7619;48.562;8.910;2023-12-29T14:25:31;4.40;;;0.90;;
15043;SDS011;7619;48.562;8.910;2023-12-29T14:28:17;1.17;;;1.07;;
15043;SDS011;7619;48.562;8.910;2023-12-29T14:30:42;1.30;;;1.00;;
15043;SDS011;7619;48.562;8.910;2023-12-29T14:33:16;2.63;;;1.30;;
15043;SDS011;7619;48.562;8.910;2023-12-29T14:35:49;1.93;;;1.23;;
15043;SDS011;7619;48.562;8.910;2023-12-29T14:38:17;1.07;;;0.97;;
15043;SDS011;7619;48.562;8.910;2023-12-29T14:40:49;1.63;;;1.17;;
15043;SDS011;7619;48.562;8.910;2023-12-29T14:43:30;1.57;;;0.90;;
15043;SDS011;7619;48.562;8.910;2023-12-29T14:46:00;1.40;;;1.00;;
15043;SDS011;7619;48.562;8.910;2023-12-29T14:48:30;2.00;;;0.90;;
15043;SDS011;7619;48.562;8.910;2023-12-29T14:50:59;0.70;;;0.70;;
15043;SDS011;7619;48.562;8.910;2023-12-29T14:53:30;0.80;;;0.80;;
15043;SDS011;7619;48.562;8.910;2023-12-29T14:56:02;2.83;;;0.77;;
15043;SDS011;7619;48.562;8.910;2023-12-29T14:58:43;0.77;;;0.77;;
15043;SDS011;7619;48.562;8.910;2023-12-29T15:01:13;0.70;;;0.70;;
15043;SDS011;7619;48.562;8.910;2023-12-29T15:03:45;0.97;;;0.60;;
15043;SDS011;7619;48.562;8.910;2023-12-29T15:06:42;3.07;;;1.10;;
15043;SDS011;7619;48.562;8.910;2023-12-29T15:12:42;2.77;;;1.27;;
15043;SDS011;7619;48.562;8.910;2023-12-29T15:15:35;3.43;;;1.30;;
15043;SDS011;7619;48.562;8.910;2023-12-29T15:18:12;1.77;;;1.40;;
15043;SDS011;7619;48.562;8.910;2023-12-29T15:20:52;1.60;;;1.40;;
15043;SDS011;7619;48.562;8.910;2023-12-29T15:23:32;2.07;;;1.20;;
15043;SDS011;7619;48.562;8.910;2023-12-29T15:26:10;1.33;;;1.13;;
15043;SDS011;7619;48.562;8.910;2023-12-29T15:28:48;1.47;;;1.30;;
15043;SDS011;7619;48.562;8.910;2023-12-29T15:31:32;1.37;;;1.20;;
15043;SDS011;7619;48.562;8.910;2023-12-29T15:36:46;1.40;;;1.30;;
15043;SDS011;7619;48.562;8.910;2023-12-29T15:39:22;1.10;;;1.00;;
15043;SDS011;7619;48.562;8.910;2023-12-29T15:42:02;1.00;;;0.80;;
15043;SDS011;7619;48.562;8.910;2023-12-29T15:44:41;1.23;;;1.00;;
15043;SDS011;7619;48.562;8.910;2023-12-29T15:47:25;1.63;;;1.30;;
15043;SDS011;7619;48.562;8.910;2023-12-29T15:50:04;1.00;;;0.90;;
15043;SDS011;7619;48.562;8.910;2023-12-29T15:52:41;1.40;;;1.30;;
15043;SDS011;7619;48.562;8.910;2023-12-29T15:55:27;2.70;;;1.50;;
15043;SDS011;7619;48.562;8.910;2023-12-29T15:58:03;2.20;;;1.50;;